Time;durP1;ratioP1;P1;durP2;ratioP2;P2;SDS_P1;SDS_P2;PMS_P1;PMS_P2;Temp;Humidity;BMP_temperature;BMP_pressure;BME280_temperature;BME280_humidity;BME280_pressure;Samples;Min_cycle;Max_cycle;Signal;HPM_P1;HPM_P2
2023/05/04 00:01:02;;;;;;;12.87;11.97;;;14.30;23.30;;;;;;5045403;28;20171;-74
2023/05/04 00:03:27;;;;;;;12.13;11.43;;;14.30;23.60;;;;;;5064060;28;20468;-74
2023/05/04 00:05:53;;;;;;;11.83;11.03;;;14.40;23.20;;;;;;5064295;28;20189;-74
2023/05/04 00:08:18;;;;;;;12.00;11.33;;;14.50;22.90;;;;;;5045989;28;20225;-74
2023/05/04 00:10:44;;;;;;;12.33;11.63;;;14.30;23.60;;;;;;5044726;28;20174;-72
2023/05/04 00:13:10;;;;;;;12.10;11.20;;;14.10;23.90;;;;;;5064074;28;20203;-73
2023/05/04 00:15:36;;;;;;;11.63;10.93;;;14.00;24.40;;;;;;5063164;28;20175;-74
2023/05/04 00:18:01;;;;;;;12.20;11.40;;;13.90;24.50;;;;;;5065963;28;20164;-73
2023/05/04 00:20:27;;;;;;;11.70;11.00;;;13.90;24.80;;;;;;5064123;28;20409;-73
2023/05/04 00:22:52;;;;;;;11.17;10.57;;;13.90;24.80;;;;;;5063817;28;20652;-73
2023/05/04 00:25:18;;;;;;;11.40;10.70;;;13.80;24.50;;;;;;5043456;28;20182;-74
2023/05/04 00:27:43;;;;;;;12.10;11.20;;;14.00;24.90;;;;;;5063373;28;20179;-74
2023/05/04 00:30:10;;;;;;;11.57;10.87;;;14.00;24.40;;;;;;5060899;28;20185;-73
2023/05/04 00:32:35;;;;;;;11.90;11.10;;;14.20;24.20;;;;;;5063218;28;20195;-74
2023/05/04 00:35:01;;;;;;;12.20;11.60;;;14.30;23.90;;;;;;5064509;28;20416;-74
2023/05/04 00:37:26;;;;;;;12.70;11.70;;;14.40;23.80;;;;;;5061941;28;20664;-75
2023/05/04 00:39:52;;;;;;;12.83;12.03;;;14.40;23.60;;;;;;5062693;28;20244;-73
2023/05/04 00:42:17;;;;;;;11.87;11.07;;;14.50;23.30;;;;;;5063061;28;21153;-72
2023/05/04 00:44:43;;;;;;;11.80;11.20;;;14.50;23.00;;;;;;5063526;28;20186;-74
2023/05/04 00:47:10;;;;;;;11.90;11.20;;;14.50;23.00;;;;;;5044206;28;20185;-73
2023/05/04 00:49:35;;;;;;;12.33;11.50;;;14.50;22.90;;;;;;5062475;28;20257;-75
2023/05/04 00:52:02;;;;;;;11.17;10.67;;;14.60;23.00;;;;;;5045052;28;20532;-73
2023/05/04 00:54:28;;;;;;;10.43;9.83;;;14.60;22.90;;;;;;5062035;28;20207;-73
2023/05/04 00:56:55;;;;;;;11.30;10.60;;;14.60;22.90;;;;;;5043895;28;20867;-73
2023/05/04 00:59:21;;;;;;;11.83;11.13;;;14.60;23.00;;;;;;5061359;28;20406;-72
2023/05/04 01:01:46;;;;;;;11.50;10.70;;;14.60;22.70;;;;;;5062941;28;20448;-73
2023/05/04 01:04:13;;;;;;;12.17;11.30;;;14.60;22.90;;;;;;5061087;28;20193;-74
2023/05/04 01:06:47;;;;;;;12.67;11.97;;;14.60;22.90;;;;;;5061236;28;20406;-76
2023/05/04 01:09:40;;;;;;;13.33;12.43;;;14.50;23.10;;;;;;5063813;28;20405;-72
2023/05/04 01:12:26;;;;;;;12.57;11.87;;;14.50;23.10;;;;;;5059485;28;20494;-75
2023/05/04 01:14:53;;;;;;;12.63;11.93;;;14.50;23.20;;;;;;5062265;28;20447;-75
2023/05/04 01:17:19;;;;;;;13.13;12.33;;;14.50;23.40;;;;;;5061363;28;20449;-74
2023/05/04 01:19:44;;;;;;;11.60;11.07;;;14.50;23.30;;;;;;5061070;28;20412;-74
2023/05/04 01:22:10;;;;;;;12.67;11.97;;;14.50;24.00;;;;;;5059688;28;20191;-75
2023/05/04 01:24:36;;;;;;;11.53;11.03;;;14.50;23.30;;;;;;5043351;28;20197;-73
2023/05/04 01:27:15;;;;;;;11.97;11.40;;;14.30;24.10;;;;;;5060040;28;20175;-73
2023/05/04 01:30:02;;;;;;;11.63;11.03;;;14.30;24.00;;;;;;5045041;28;20644;-74
2023/05/04 01:32:30;;;;;;;12.20;11.60;;;14.30;23.90;;;;;;5060681;28;20433;-74
2023/05/04 01:34:56;;;;;;;12.20;11.50;;;14.40;24.10;;;;;;5062123;28;20420;-75
2023/05/04 01:37:21;;;;;;;12.83;12.23;;;14.30;23.90;;;;;;5060882;28;20498;-73
2023/05/04 01:39:49;;;;;;;12.20;11.57;;;14.30;24.20;;;;;;5061667;28;20491;-74
2023/05/04 01:42:15;;;;;;;11.97;11.37;;;14.30;24.30;;;;;;5061090;28;20699;-73
2023/05/04 01:44:40;;;;;;;12.20;11.60;;;14.30;24.30;;;;;;5062392;28;20406;-75
2023/05/04 01:47:06;;;;;;;12.70;11.87;;;14.20;24.40;;;;;;5060824;28;20185;-71
2023/05/04 01:49:31;;;;;;;12.57;11.87;;;14.20;24.40;;;;;;5043549;28;20186;-73
2023/05/04 01:51:57;;;;;;;12.10;11.30;;;14.20;24.60;;;;;;5042313;28;20266;-74
2023/05/04 01:54:23;;;;;;;12.10;11.50;;;14.20;24.50;;;;;;5064536;28;20213;-75
2023/05/04 01:56:48;;;;;;;13.67;12.87;;;14.20;24.50;;;;;;5062531;28;20472;-76
2023/05/04 01:59:14;;;;;;;13.27;12.40;;;14.30;24.60;;;;;;5059150;28;20233;-74
2023/05/04 02:01:40;;;;;;;13.40;12.70;;;14.20;24.60;;;;;;5060127;28;20203;-74
2023/05/04 02:04:06;;;;;;;13.80;12.90;;;14.30;24.60;;;;;;5059523;28;20825;-73
2023/05/04 02:06:32;;;;;;;13.37;12.57;;;14.30;24.50;;;;;;5043507;28;20422;-73
2023/05/04 02:08:57;;;;;;;13.10;12.37;;;14.30;24.50;;;;;;5043279;28;20232;-74
2023/05/04 02:11:23;;;;;;;13.57;12.60;;;14.30;24.70;;;;;;5040815;28;20190;-74
2023/05/04 02:13:48;;;;;;;13.97;13.17;;;14.30;24.70;;;;;;5061752;28;20646;-74
2023/05/04 02:16:14;;;;;;;13.20;12.30;;;14.00;25.30;;;;;;5075338;28;20302;-73
2023/05/04 02:18:39;;;;;;;14.47;13.43;;;13.90;25.80;;;;;;5061114;28;20181;-73
2023/05/04 02:21:05;;;;;;;12.50;11.90;;;13.90;25.90;;;;;;5061013;28;20172;-74
2023/05/04 02:23:30;;;;;;;13.07;12.27;;;13.80;25.80;;;;;;5064555;28;20594;-74
2023/05/04 02:25:56;;;;;;;14.20;13.50;;;13.90;25.80;;;;;;5065162;28;20175;-76
2023/05/04 02:28:21;;;;;;;14.87;14.07;;;13.80;25.80;;;;;;5064204;28;20600;-72
2023/05/04 02:30:47;;;;;;;13.80;13.00;;;13.70;26.00;;;;;;5064722;28;20188;-74
2023/05/04 02:33:13;;;;;;;14.60;13.80;;;13.70;26.20;;;;;;5065226;28;20196;-74
2023/05/04 02:35:38;;;;;;;14.33;13.53;;;13.80;25.80;;;;;;5065239;28;20190;-76
2023/05/04 02:38:04;;;;;;;15.43;14.23;;;13.80;26.10;;;;;;5063380;28;20221;-73
2023/05/04 02:40:29;;;;;;;14.07;13.27;;;13.80;26.10;;;;;;5063065;28;20178;-74
2023/05/04 02:42:55;;;;;;;14.40;13.40;;;13.80;25.80;;;;;;5063227;28;20195;-73
2023/05/04 02:45:20;;;;;;;13.67;12.97;;;13.90;25.80;;;;;;5045731;28;20171;-74
2023/05/04 02:47:46;;;;;;;14.20;13.30;;;13.90;25.80;;;;;;5062492;28;20183;-75
2023/05/04 02:50:12;;;;;;;14.53;13.60;;;14.00;25.90;;;;;;5061742;28;20176;-73
2023/05/04 02:52:37;;;;;;;15.40;14.50;;;14.00;25.90;;;;;;5065131;28;20195;-74
2023/05/04 02:55:03;;;;;;;14.33;13.53;;;14.00;25.90;;;;;;5062027;28;20180;-75
2023/05/04 02:57:29;;;;;;;15.00;14.10;;;14.00;25.90;;;;;;5061143;28;20199;-73
2023/05/04 02:59:55;;;;;;;15.20;14.30;;;14.00;25.90;;;;;;5063055;28;20204;-74
2023/05/04 03:02:20;;;;;;;15.67;14.77;;;14.00;25.90;;;;;;5062130;28;20822;-73
2023/05/04 03:04:46;;;;;;;16.23;15.33;;;13.70;26.70;;;;;;5062061;28;20178;-73
2023/05/04 03:07:12;;;;;;;15.97;15.07;;;13.60;26.80;;;;;;5062589;28;20720;-73
2023/05/04 03:09:37;;;;;;;16.13;15.17;;;13.60;27.10;;;;;;5062949;28;20606;-73
2023/05/04 03:12:03;;;;;;;15.67;14.70;;;13.70;27.20;;;;;;5062608;28;20225;-74
2023/05/04 03:14:30;;;;;;;15.47;14.60;;;13.70;26.90;;;;;;5061413;28;20254;-74
2023/05/04 03:16:55;;;;;;;16.33;15.43;;;13.70;26.80;;;;;;5044582;28;20214;-77
2023/05/04 03:19:21;;;;;;;15.50;14.50;;;13.70;26.70;;;;;;5043816;28;20515;-72
2023/05/04 03:21:47;;;;;;;15.23;14.43;;;13.70;26.70;;;;;;5063655;28;20245;-72
2023/05/04 03:24:12;;;;;;;15.73;14.87;;;13.80;26.80;;;;;;5064991;28;20172;-73
2023/05/04 03:26:38;;;;;;;14.73;13.93;;;13.80;26.40;;;;;;5043818;28;20282;-73
2023/05/04 03:29:04;;;;;;;16.23;15.23;;;13.80;26.50;;;;;;5064124;28;20183;-74
2023/05/04 03:31:29;;;;;;;17.20;16.20;;;13.80;26.60;;;;;;5077418;28;20167;-73
2023/05/04 03:33:55;;;;;;;17.10;16.07;;;13.80;26.50;;;;;;5066176;28;20229;-74
2023/05/04 03:36:20;;;;;;;16.37;15.27;;;13.80;26.70;;;;;;5065348;28;20264;-75
2023/05/04 03:38:46;;;;;;;17.77;16.57;;;13.80;26.70;;;;;;5064347;28;20187;-73
2023/05/04 03:41:12;;;;;;;17.90;16.70;;;13.80;26.90;;;;;;5065145;28;20180;-76
2023/05/04 03:43:38;;;;;;;16.00;15.10;;;13.70;26.80;;;;;;5068762;28;20254;-73
2023/05/04 03:46:04;;;;;;;16.00;15.10;;;13.80;26.80;;;;;;5068199;28;20499;-74
2023/05/04 03:48:30;;;;;;;15.87;14.97;;;13.80;26.80;;;;;;5069173;28;20259;-74
2023/05/04 03:50:56;;;;;;;17.20;15.93;;;13.80;26.70;;;;;;5068744;28;20417;-75
2023/05/04 03:53:21;;;;;;;15.73;14.93;;;13.80;26.80;;;;;;5049895;28;20700;-76
2023/05/04 03:55:47;;;;;;;16.60;15.70;;;13.70;26.80;;;;;;5070049;28;20417;-74
2023/05/04 03:58:13;;;;;;;15.40;14.50;;;13.70;26.90;;;;;;5052566;28;20175;-74
2023/05/04 04:00:38;;;;;;;15.67;14.80;;;13.70;26.90;;;;;;5052372;28;20189;-74
2023/05/04 04:03:04;;;;;;;15.33;14.53;;;13.70;27.00;;;;;;5072373;28;20540;-73
2023/05/04 04:05:29;;;;;;;15.33;14.43;;;13.70;26.90;;;;;;5072794;28;20218;-74
2023/05/04 04:07:55;;;;;;;16.40;15.40;;;13.70;26.90;;;;;;5072842;28;20179;-76
2023/05/04 04:10:20;;;;;;;16.00;14.80;;;13.70;26.90;;;;;;5074253;28;20214;-73
2023/05/04 04:12:46;;;;;;;15.70;14.80;;;13.70;26.90;;;;;;5074469;28;20206;-74
2023/05/04 04:15:11;;;;;;;16.40;15.30;;;13.70;26.90;;;;;;5089333;28;20644;-74
2023/05/04 04:17:37;;;;;;;16.40;15.20;;;13.70;26.80;;;;;;5072182;28;20241;-73
2023/05/04 04:20:03;;;;;;;15.90;15.00;;;13.70;27.00;;;;;;5073917;28;20198;-73
2023/05/04 04:22:28;;;;;;;13.90;13.10;;;13.70;27.20;;;;;;5072885;28;20536;-73
2023/05/04 04:24:55;;;;;;;16.73;15.83;;;13.70;27.30;;;;;;5073481;28;20414;-73
2023/05/04 04:27:20;;;;;;;16.87;15.87;;;13.50;27.60;;;;;;5074629;28;20225;-73
2023/05/04 04:29:46;;;;;;;16.40;15.27;;;13.50;28.00;;;;;;5075514;28;20414;-74
2023/05/04 04:32:12;;;;;;;16.00;15.00;;;13.50;27.80;;;;;;5075187;28;20219;-73
2023/05/04 04:34:37;;;;;;;16.90;15.80;;;13.50;27.90;;;;;;5078897;28;20182;-73
2023/05/04 04:37:03;;;;;;;16.07;15.17;;;13.40;28.20;;;;;;5075019;28;20839;-74
2023/05/04 04:39:28;;;;;;;17.33;16.30;;;13.40;28.20;;;;;;5074350;28;20175;-75
2023/05/04 04:41:54;;;;;;;18.60;17.20;;;13.40;27.90;;;;;;5074445;28;20191;-75
2023/05/04 04:44:20;;;;;;;19.27;18.07;;;13.10;28.30;;;;;;5073103;28;20181;-74
2023/05/04 04:46:46;;;;;;;19.40;18.30;;;12.90;29.00;;;;;;5075344;28;20175;-74
2023/05/04 04:49:11;;;;;;;18.57;17.27;;;12.90;29.60;;;;;;5075309;28;20258;-73
2023/05/04 04:51:37;;;;;;;18.33;17.20;;;13.00;29.70;;;;;;5077156;28;20449;-74
2023/05/04 04:54:03;;;;;;;19.20;17.80;;;13.10;29.10;;;;;;5060437;28;20214;-75
2023/05/04 04:56:29;;;;;;;16.20;15.20;;;13.20;29.00;;;;;;5077718;28;20668;-72
2023/05/04 04:58:54;;;;;;;18.87;17.63;;;13.30;28.50;;;;;;5082160;28;20686;-74
2023/05/04 05:01:20;;;;;;;15.43;14.43;;;13.40;28.40;;;;;;5082938;28;20531;-74
2023/05/04 05:03:45;;;;;;;17.13;16.10;;;13.50;28.40;;;;;;5078065;28;20186;-74
2023/05/04 05:06:12;;;;;;;17.13;16.13;;;13.60;28.20;;;;;;5080187;28;20179;-73
2023/05/04 05:08:37;;;;;;;17.80;16.67;;;13.60;28.00;;;;;;5081233;28;20176;-73
2023/05/04 05:11:03;;;;;;;17.17;16.17;;;13.60;28.00;;;;;;5077911;28;20464;-75
2023/05/04 05:13:32;;;;;;;18.20;16.70;;;13.70;27.90;;;;;;5085400;28;20199;-74
2023/05/04 05:15:57;;;;;;;14.93;14.00;;;13.70;27.90;;;;;;5073968;28;20196;-74
2023/05/04 05:18:23;;;;;;;18.13;16.93;;;13.70;27.90;;;;;;5091242;28;20477;-72
2023/05/04 05:20:49;;;;;;;18.17;16.90;;;13.70;27.90;;;;;;5091222;28;20168;-73
2023/05/04 05:23:15;;;;;;;16.87;15.87;;;13.70;27.90;;;;;;5085991;28;20453;-75
2023/05/04 05:25:43;;;;;;;17.90;16.60;;;13.80;27.80;;;;;;5075746;28;20991;-74
2023/05/04 05:28:09;;;;;;;18.93;17.17;;;13.80;27.50;;;;;;5072846;28;20432;-75
2023/05/04 05:30:34;;;;;;;19.40;17.53;;;13.60;27.60;;;;;;5072688;28;20926;-74
2023/05/04 05:33:00;;;;;;;17.97;16.27;;;13.60;28.10;;;;;;5072546;28;20468;-71
2023/05/04 05:35:25;;;;;;;19.87;18.57;;;13.60;27.80;;;;;;5056355;28;20167;-75
2023/05/04 05:37:51;;;;;;;18.00;16.90;;;13.60;27.70;;;;;;5074807;28;20199;-73
2023/05/04 05:40:17;;;;;;;19.70;17.67;;;13.60;28.10;;;;;;5074065;28;20175;-72
2023/05/04 05:42:43;;;;;;;18.40;17.00;;;13.60;27.90;;;;;;5070592;28;20266;-74
2023/05/04 05:45:09;;;;;;;19.00;17.80;;;13.70;27.90;;;;;;5053454;28;20413;-75
2023/05/04 05:47:35;;;;;;;19.33;18.03;;;13.70;27.60;;;;;;5051425;28;20494;-74
2023/05/04 05:50:05;;;;;;;17.73;16.43;;;13.80;27.70;;;;;;5067348;28;20504;-74
2023/05/04 05:52:31;;;;;;;19.37;18.17;;;13.80;27.80;;;;;;5072735;28;20433;-74
2023/05/04 05:54:56;;;;;;;18.70;17.33;;;13.80;28.00;;;;;;5071335;28;20405;-74
2023/05/04 05:57:22;;;;;;;19.93;18.73;;;13.90;27.70;;;;;;5075561;28;20305;-74
2023/05/04 05:59:47;;;;;;;19.53;18.30;;;13.90;27.00;;;;;;5075608;28;20226;-74
2023/05/04 06:02:13;;;;;;;19.03;17.93;;;13.90;26.80;;;;;;5075190;28;20207;-74
2023/05/04 06:04:43;;;;;;;20.40;19.10;;;14.00;27.00;;;;;;5058634;28;20608;-74
2023/05/04 06:07:09;;;;;;;19.00;17.80;;;13.90;26.70;;;;;;5076666;28;20845;-74
2023/05/04 06:09:35;;;;;;;19.90;18.63;;;13.80;27.00;;;;;;5058592;28;20421;-75
2023/05/04 06:12:01;;;;;;;20.33;18.93;;;13.80;27.40;;;;;;5076235;28;20187;-74
2023/05/04 06:14:26;;;;;;;18.10;17.00;;;13.90;27.30;;;;;;5076303;28;20448;-74
2023/05/04 06:16:52;;;;;;;23.40;19.33;;;14.00;27.30;;;;;;5059023;28;20199;-74
2023/05/04 06:19:18;;;;;;;20.00;18.50;;;14.00;27.30;;;;;;5076357;28;20171;-74
2023/05/04 06:21:44;;;;;;;18.10;17.00;;;14.10;26.90;;;;;;5075874;28;20588;-75
2023/05/04 06:24:09;;;;;;;18.90;17.57;;;14.10;26.80;;;;;;5074936;28;20424;-74
2023/05/04 06:26:35;;;;;;;19.07;17.87;;;14.10;26.70;;;;;;5075690;28;20171;-75
2023/05/04 06:29:00;;;;;;;19.40;18.20;;;14.10;26.50;;;;;;5076612;28;20206;-74
2023/05/04 06:31:26;;;;;;;22.27;20.40;;;14.10;26.00;;;;;;5076498;28;20245;-74
2023/05/04 06:33:52;;;;;;;20.07;18.57;;;14.00;26.30;;;;;;5077218;28;20180;-73
2023/05/04 06:36:17;;;;;;;18.90;17.50;;;14.10;26.60;;;;;;5076912;28;20460;-70
2023/05/04 06:38:43;;;;;;;19.40;18.13;;;14.10;26.30;;;;;;5076848;28;20179;-74
2023/05/04 06:41:08;;;;;;;20.80;19.30;;;14.10;26.40;;;;;;5075243;28;20171;-72
2023/05/04 06:43:34;;;;;;;21.03;19.73;;;14.10;26.50;;;;;;5074508;28;20259;-73
2023/05/04 06:46:01;;;;;;;19.37;17.77;;;14.10;26.90;;;;;;5075974;28;20167;-72
2023/05/04 06:48:27;;;;;;;21.17;19.70;;;14.10;26.90;;;;;;5076196;28;20171;-72
2023/05/04 06:50:53;;;;;;;19.60;18.10;;;14.20;26.50;;;;;;5075815;28;20416;-72
2023/05/04 06:53:18;;;;;;;19.97;18.57;;;14.30;26.80;;;;;;5074416;28;20194;-73
2023/05/04 06:55:44;;;;;;;20.17;18.73;;;14.30;26.70;;;;;;5076238;28;20242;-73
2023/05/04 06:58:10;;;;;;;20.83;19.03;;;14.40;26.20;;;;;;5075147;28;20159;-73
2023/05/04 07:00:36;;;;;;;20.53;19.00;;;14.40;26.20;;;;;;5076406;28;20437;-75
2023/05/04 07:03:02;;;;;;;20.20;18.80;;;14.50;26.20;;;;;;5075116;28;20449;-74
2023/05/04 07:05:27;;;;;;;19.93;18.67;;;14.50;26.30;;;;;;5074936;28;20972;-75
2023/05/04 07:07:53;;;;;;;20.17;18.67;;;14.50;26.20;;;;;;5074556;28;20179;-75
2023/05/04 07:10:19;;;;;;;21.97;20.47;;;14.60;26.30;;;;;;5076044;28;20567;-75
2023/05/04 07:12:44;;;;;;;20.60;19.20;;;14.60;26.30;;;;;;5055257;28;20208;-73
2023/05/04 07:15:10;;;;;;;20.70;19.30;;;14.70;25.80;;;;;;5054282;28;20245;-74
2023/05/04 07:17:37;;;;;;;22.07;20.40;;;14.70;26.10;;;;;;5054390;28;20204;-73
2023/05/04 07:20:04;;;;;;;20.37;18.83;;;14.70;25.90;;;;;;5054628;28;20172;-73
2023/05/04 07:22:30;;;;;;;20.50;19.10;;;14.80;26.20;;;;;;5054232;28;20433;-74
2023/05/04 07:25:02;;;;;;;20.87;19.30;;;14.90;25.90;;;;;;5053976;28;20494;-73
2023/05/04 07:27:28;;;;;;;20.43;19.07;;;15.00;25.60;;;;;;5053789;28;20426;-72
2023/05/04 07:29:54;;;;;;;21.80;20.30;;;15.10;25.30;;;;;;5055062;28;20909;-72
2023/05/04 07:32:20;;;;;;;20.33;18.93;;;15.00;25.20;;;;;;5071766;28;20195;-73
2023/05/04 07:34:45;;;;;;;20.17;18.77;;;15.10;25.30;;;;;;5055211;28;20425;-72
2023/05/04 07:37:11;;;;;;;21.60;19.87;;;15.20;24.90;;;;;;5055636;28;20211;-71
2023/05/04 07:39:40;;;;;;;22.30;20.70;;;15.30;25.00;;;;;;5055772;28;20270;-72
2023/05/04 07:42:06;;;;;;;24.27;20.13;;;15.30;24.70;;;;;;5072792;28;20429;-70
2023/05/04 07:44:32;;;;;;;20.43;18.93;;;15.40;24.70;;;;;;5055710;28;20417;-72
2023/05/04 07:46:58;;;;;;;22.27;20.77;;;15.40;24.40;;;;;;5072613;28;20474;-71
2023/05/04 07:49:24;;;;;;;22.63;21.07;;;15.60;24.00;;;;;;5055690;28;20552;-74
2023/05/04 07:51:50;;;;;;;22.10;20.70;;;15.60;24.30;;;;;;5073738;28;20433;-75
2023/05/04 07:54:15;;;;;;;20.07;18.67;;;15.70;23.90;;;;;;5074390;28;20171;-74
2023/05/04 07:56:41;;;;;;;21.00;19.47;;;15.80;23.70;;;;;;5074428;28;20517;-76
2023/05/04 07:59:06;;;;;;;19.93;18.60;;;15.90;23.20;;;;;;5055935;28;20266;-73
2023/05/04 08:01:32;;;;;;;19.30;17.90;;;16.00;23.40;;;;;;5072755;28;20198;-75
2023/05/04 08:03:58;;;;;;;19.50;18.30;;;16.00;23.20;;;;;;5074034;28;20597;-76
2023/05/04 08:06:23;;;;;;;20.93;19.40;;;16.10;23.50;;;;;;5074497;28;20180;-75
2023/05/04 08:08:49;;;;;;;20.23;18.93;;;16.10;22.90;;;;;;5074005;28;20214;-72
2023/05/04 08:11:15;;;;;;;20.20;18.60;;;16.20;22.80;;;;;;5073253;28;20175;-74
2023/05/04 08:13:40;;;;;;;20.67;19.17;;;16.30;22.40;;;;;;5074637;28;20171;-75
2023/05/04 08:16:08;;;;;;;18.63;17.07;;;16.30;22.10;;;;;;5074043;28;20540;-76
2023/05/04 08:18:34;;;;;;;19.57;18.17;;;16.40;22.60;;;;;;5073365;28;20194;-74
2023/05/04 08:20:59;;;;;;;18.83;17.47;;;16.40;22.90;;;;;;5073858;28;20401;-72
2023/05/04 08:23:25;;;;;;;18.93;17.33;;;16.50;22.50;;;;;;5073486;28;20195;-73
2023/05/04 08:25:51;;;;;;;18.80;17.43;;;16.60;22.00;;;;;;5074011;28;20172;-74
2023/05/04 08:28:17;;;;;;;17.47;15.87;;;16.80;21.80;;;;;;5056133;28;20229;-74
2023/05/04 08:30:42;;;;;;;17.37;15.90;;;16.90;21.90;;;;;;5055961;28;20418;-74
2023/05/04 08:33:08;;;;;;;14.10;13.13;;;17.00;21.40;;;;;;5054495;28;21103;-75
2023/05/04 08:35:34;;;;;;;15.30;14.13;;;17.10;20.00;;;;;;5073167;28;20175;-74
2023/05/04 08:38:00;;;;;;;16.67;15.70;;;17.10;19.70;;;;;;5074033;28;20209;-75
2023/05/04 08:40:26;;;;;;;15.07;14.00;;;17.20;19.80;;;;;;5073884;28;20784;-75
2023/05/04 08:42:51;;;;;;;14.57;13.77;;;17.30;18.90;;;;;;5073308;28;20431;-74
2023/05/04 08:45:17;;;;;;;14.33;12.90;;;17.50;18.40;;;;;;5073636;28;20637;-74
2023/05/04 08:47:43;;;;;;;13.43;12.53;;;17.60;16.30;;;;;;5073418;28;20184;-73
2023/05/04 08:50:10;;;;;;;13.63;12.90;;;17.70;16.90;;;;;;5072990;28;20471;-77
2023/05/04 08:52:37;;;;;;;12.10;11.50;;;17.70;16.60;;;;;;5054949;28;20476;-76
2023/05/04 08:55:04;;;;;;;12.40;11.70;;;18.00;16.10;;;;;;5072656;28;20413;-75
2023/05/04 08:57:32;;;;;;;12.50;11.80;;;18.10;16.10;;;;;;5055762;28;20869;-74
2023/05/04 08:59:59;;;;;;;12.87;12.00;;;18.30;15.90;;;;;;5055735;28;20410;-76
2023/05/04 09:02:26;;;;;;;12.77;11.83;;;18.40;15.50;;;;;;5071350;28;21047;-75
2023/05/04 09:04:52;;;;;;;13.97;12.90;;;18.50;15.20;;;;;;5073627;28;20437;-75
2023/05/04 09:07:19;;;;;;;12.23;11.43;;;18.60;14.40;;;;;;5073710;28;20412;-75
2023/05/04 09:09:46;;;;;;;14.37;13.07;;;18.70;13.80;;;;;;5070021;28;20437;-76
2023/05/04 09:12:12;;;;;;;11.33;10.73;;;18.70;13.80;;;;;;5071885;28;20426;-75
2023/05/04 09:14:38;;;;;;;12.10;11.43;;;18.80;13.50;;;;;;5072671;28;20409;-71
2023/05/04 09:17:13;;;;;;;11.40;10.70;;;18.80;13.30;;;;;;5072514;28;20564;-72
2023/05/04 09:19:42;;;;;;;11.10;10.50;;;19.00;13.60;;;;;;5072293;28;20462;-71
2023/05/04 09:22:16;;;;;;;12.00;11.30;;;19.10;13.30;;;;;;5071952;28;20520;-72
2023/05/04 09:24:41;;;;;;;12.10;11.30;;;19.10;13.10;;;;;;5072541;28;20432;-73
2023/05/04 09:27:09;;;;;;;11.60;10.90;;;19.20;12.80;;;;;;5073082;28;20915;-75
2023/05/04 09:29:38;;;;;;;12.30;11.50;;;19.30;13.00;;;;;;5073235;28;20175;-75
2023/05/04 09:32:05;;;;;;;12.07;11.33;;;19.50;12.60;;;;;;5072427;28;20508;-74
2023/05/04 09:34:32;;;;;;;12.13;11.47;;;19.70;12.30;;;;;;5073314;28;20416;-75
2023/05/04 09:37:02;;;;;;;12.50;11.80;;;19.90;12.30;;;;;;5073197;28;20461;-75
2023/05/04 09:39:29;;;;;;;13.00;12.30;;;20.10;12.00;;;;;;5055125;28;20417;-74
2023/05/04 09:41:55;;;;;;;11.57;10.90;;;20.10;11.80;;;;;;5071757;28;20425;-75
2023/05/04 09:44:23;;;;;;;11.80;11.20;;;20.30;11.40;;;;;;5072780;28;20417;-75
2023/05/04 09:46:53;;;;;;;12.70;12.00;;;20.50;11.90;;;;;;5055410;28;20428;-75
2023/05/04 09:49:32;;;;;;;13.07;12.27;;;20.70;11.60;;;;;;5073035;28;20421;-75
2023/05/04 09:52:00;;;;;;;12.20;11.60;;;20.80;11.20;;;;;;5072276;28;20647;-75
2023/05/04 09:54:34;;;;;;;11.67;10.97;;;20.90;10.70;;;;;;5073657;28;20932;-75
2023/05/04 09:57:11;;;;;;;11.27;10.57;;;21.10;10.90;;;;;;5055247;28;20473;-75
2023/05/04 09:59:38;;;;;;;11.67;11.07;;;21.10;9.90;;;;;;5073237;28;20433;-74
2023/05/04 10:02:05;;;;;;;11.27;10.67;;;21.10;9.90;;;;;;5072424;28;20947;-74
2023/05/04 10:04:35;;;;;;;9.97;9.47;;;21.20;9.50;;;;;;5073013;28;20425;-74
2023/05/04 10:07:05;;;;;;;11.13;10.53;;;21.20;9.50;;;;;;5072730;28;20512;-73
2023/05/04 10:09:31;;;;;;;10.17;9.70;;;21.30;9.60;;;;;;5073133;28;20467;-73
2023/05/04 10:12:04;;;;;;;10.93;10.33;;;21.40;9.50;;;;;;5071908;28;20780;-74
2023/05/04 10:14:33;;;;;;;11.10;10.40;;;21.50;9.70;;;;;;5054647;28;20849;-75
2023/05/04 10:17:52;;;;;;;10.77;10.20;;;21.50;9.70;;;;;;5072840;28;20461;-75
2023/05/04 10:20:42;;;;;;;11.80;11.10;;;21.60;8.90;;;;;;4991316;28;20881;-75
2023/05/04 10:23:33;;;;;;;10.43;9.83;;;21.50;8.30;;;;;;5071453;28;20437;-75
2023/05/04 10:26:19;;;;;;;10.20;9.60;;;21.60;9.30;;;;;;5072483;28;20410;-75
2023/05/04 10:29:10;;;;;;;10.80;10.20;;;21.70;8.70;;;;;;5072673;28;20409;-75
2023/05/04 10:31:42;;;;;;;10.50;10.00;;;21.80;8.50;;;;;;5072541;28;20426;-73
2023/05/04 10:34:09;;;;;;;9.90;9.30;;;21.90;7.00;;;;;;5072539;28;20414;-74
2023/05/04 10:36:39;;;;;;;10.73;10.27;;;22.10;6.90;;;;;;5072711;28;20481;-71
2023/05/04 10:39:19;;;;;;;11.27;10.67;;;22.00;7.00;;;;;;5072555;28;20441;-71
2023/05/04 10:42:06;;;;;;;11.10;10.50;;;22.10;7.10;;;;;;5071993;28;20429;-72
2023/05/04 10:44:34;;;;;;;11.07;10.07;;;22.00;6.70;;;;;;5076244;28;20405;-72
2023/05/04 10:47:00;;;;;;;11.60;10.90;;;22.00;7.20;;;;;;5058118;28;20966;-71
2023/05/04 10:49:26;;;;;;;11.63;11.03;;;22.00;7.80;;;;;;5058391;28;20421;-73
2023/05/04 10:52:04;;;;;;;9.97;9.47;;;22.10;6.70;;;;;;5075431;28;20913;-73
2023/05/04 10:54:30;;;;;;;12.10;11.40;;;22.10;5.60;;;;;;5057116;28;20876;-74
2023/05/04 10:57:08;;;;;;;11.53;10.63;;;22.10;5.60;;;;;;5057468;28;20332;-75
2023/05/04 10:59:34;;;;;;;13.70;12.80;;;22.10;5.60;;;;;;5058007;28;20167;-75
2023/05/04 11:02:04;;;;;;;10.77;10.20;;;22.10;6.30;;;;;;5056683;28;20512;-74
2023/05/04 11:04:30;;;;;;;11.93;11.13;;;22.00;6.50;;;;;;5075777;28;20393;-74
2023/05/04 11:07:07;;;;;;;9.67;9.17;;;21.90;6.70;;;;;;5075659;28;20492;-74
2023/05/04 11:09:41;;;;;;;11.67;10.87;;;21.80;6.40;;;;;;5057506;28;20424;-73
2023/05/04 11:12:10;;;;;;;10.00;9.50;;;21.90;6.20;;;;;;5074323;28;20467;-73
2023/05/04 11:14:40;;;;;;;10.90;10.40;;;22.00;5.90;;;;;;5057773;28;20425;-75
2023/05/04 11:17:06;;;;;;;10.77;10.07;;;22.20;5.70;;;;;;5057681;28;20552;-74
2023/05/04 11:19:35;;;;;;;11.70;11.00;;;22.30;5.70;;;;;;5057749;28;20410;-72
2023/05/04 11:22:01;;;;;;;10.87;10.27;;;22.20;5.70;;;;;;5073319;28;20947;-74
2023/05/04 11:24:44;;;;;;;9.97;9.37;;;22.10;5.60;;;;;;5074519;28;20449;-72
2023/05/04 11:27:27;;;;;;;10.67;10.07;;;22.10;5.60;;;;;;5056241;28;20706;-71
2023/05/04 11:30:01;;;;;;;11.10;10.50;;;22.10;5.60;;;;;;5074325;28;20815;-71
2023/05/04 11:32:42;;;;;;;10.90;10.40;;;22.00;5.60;;;;;;5073247;28;20424;-74
2023/05/04 11:35:13;;;;;;;10.70;10.20;;;22.10;5.60;;;;;;5073595;28;20424;-72
2023/05/04 11:37:42;;;;;;;11.10;10.20;;;22.10;5.60;;;;;;5074126;28;20966;-71
2023/05/04 11:40:17;;;;;;;10.30;9.70;;;22.10;5.60;;;;;;5074685;28;20919;-71
2023/05/04 11:42:43;;;;;;;12.43;10.30;;;22.10;5.70;;;;;;5073617;28;20503;-71
2023/05/04 11:45:11;;;;;;;10.80;10.20;;;22.10;5.60;;;;;;5056411;28;20425;-72
2023/05/04 11:47:37;;;;;;;10.47;9.97;;;22.00;5.50;;;;;;5052329;28;20462;-73
2023/05/04 11:50:05;;;;;;;11.87;11.10;;;22.10;5.60;;;;;;5054314;28;20419;-73
2023/05/04 11:52:32;;;;;;;11.20;10.50;;;22.30;5.70;;;;;;5053375;28;20468;-74
2023/05/04 11:54:57;;;;;;;11.23;10.73;;;22.30;5.10;;;;;;5053310;28;20410;-71
2023/05/04 11:57:23;;;;;;;10.37;9.83;;;22.40;4.90;;;;;;5054163;28;20454;-72
2023/05/04 11:59:49;;;;;;;11.73;10.93;;;22.40;5.10;;;;;;5053385;28;20573;-72
2023/05/04 12:02:16;;;;;;;11.07;10.37;;;22.40;5.10;;;;;;5034613;28;20697;-72
2023/05/04 12:04:41;;;;;;;10.50;10.00;;;22.40;4.50;;;;;;5035427;28;20168;-72
2023/05/04 12:07:07;;;;;;;11.40;10.60;;;22.40;4.40;;;;;;5052993;28;20417;-72
2023/05/04 12:09:43;;;;;;;10.67;10.17;;;22.50;4.80;;;;;;5053023;28;20200;-72
2023/05/04 12:12:09;;;;;;;10.00;9.50;;;22.50;4.80;;;;;;5052231;28;20195;-73
2023/05/04 12:14:45;;;;;;;9.77;9.37;;;22.50;4.90;;;;;;5052841;28;20417;-73
2023/05/04 12:17:10;;;;;;;10.53;10.03;;;22.30;4.60;;;;;;5052651;28;20284;-74
2023/05/04 12:19:46;;;;;;;9.20;8.80;;;22.20;4.90;;;;;;5051452;28;21012;-73
2023/05/04 12:22:12;;;;;;;10.17;9.60;;;22.20;5.20;;;;;;5052194;28;20348;-73
2023/05/04 12:24:38;;;;;;;10.40;9.67;;;22.30;4.70;;;;;;5052269;28;20410;-73
2023/05/04 12:27:04;;;;;;;10.60;10.03;;;22.40;4.50;;;;;;5052650;28;20168;-74
2023/05/04 12:29:30;;;;;;;10.40;9.70;;;22.30;5.30;;;;;;5052568;28;20982;-73
2023/05/04 12:31:55;;;;;;;10.87;10.13;;;22.20;4.60;;;;;;5056240;28;20206;-75